Terminal Aerodrome Forecast
Issued by NWS Grand Forks, ND

Home | Current Version | Previous Version | Text Only | Print | Product List | Glossary Off
Versions: 1 2 3 4 5 6 7 8 9 10 11 12 13 14 15 16 17 18 19 20

835
FTUS43 KFGF 250520
TAFGFK
TAF
KGFK 250520Z 2506/2606 32008KT P6SM OVC006
      TEMPO 2506/2510 5SM -DZ BR
     FM251400 34008KT P6SM OVC008
     FM251700 35009KT P6SM OVC010
     FM252100 36009KT P6SM OVC020=

USA.gov is the U.S. government's official web portal to all federal, state and local government web resources and services.